sensor_id;sensor_type;location;lat;lon;timestamp;temperature;humidity
14769;DHT22;7476;49.404;11.152;2023-07-29T00:01:01;15.90;99.90
14769;DHT22;7476;49.404;11.152;2023-07-29T00:03:27;15.80;99.90
14769;DHT22;7476;49.404;11.152;2023-07-29T00:05:55;15.70;99.90
14769;DHT22;7476;49.404;11.152;2023-07-29T00:08:22;15.70;99.90
14769;DHT22;7476;49.404;11.152;2023-07-29T00:10:48;15.70;99.90
14769;DHT22;7476;49.404;11.152;2023-07-29T00:13:16;15.70;99.90
14769;DHT22;7476;49.404;11.152;2023-07-29T00:15:43;15.70;99.90
14769;DHT22;7476;49.404;11.152;2023-07-29T00:18:10;15.80;99.90
14769;DHT22;7476;49.404;11.152;2023-07-29T00:20:37;15.70;99.90
14769;DHT22;7476;49.404;11.152;2023-07-29T00:23:04;15.70;99.90
14769;DHT22;7476;49.404;11.152;2023-07-29T00:25:30;15.70;99.90
14769;DHT22;7476;49.404;11.152;2023-07-29T00:27:57;15.70;99.90
14769;DHT22;7476;49.404;11.152;2023-07-29T00:30:26;15.60;99.90
14769;DHT22;7476;49.404;11.152;2023-07-29T00:32:53;15.70;99.90
14769;DHT22;7476;49.404;11.152;2023-07-29T00:35:19;15.80;99.90
14769;DHT22;7476;49.404;11.152;2023-07-29T00:37:46;15.90;99.90
14769;DHT22;7476;49.404;11.152;2023-07-29T00:40:15;16.00;99.90
14769;DHT22;7476;49.404;11.152;2023-07-29T00:42:45;16.00;99.90
14769;DHT22;7476;49.404;11.152;2023-07-29T00:45:12;15.90;99.90
14769;DHT22;7476;49.404;11.152;2023-07-29T00:47:41;15.90;99.90
14769;DHT22;7476;49.404;11.152;2023-07-29T00:50:09;15.90;99.90
14769;DHT22;7476;49.404;11.152;2023-07-29T00:52:36;15.90;99.90
14769;DHT22;7476;49.404;11.152;2023-07-29T00:55:04;15.90;99.90
14769;DHT22;7476;49.404;11.152;2023-07-29T00:57:31;15.80;99.90
14769;DHT22;7476;49.404;11.152;2023-07-29T01:00:00;15.70;99.90
14769;DHT22;7476;49.404;11.152;2023-07-29T01:02:28;15.80;99.90
14769;DHT22;7476;49.404;11.152;2023-07-29T01:04:57;15.90;99.90
14769;DHT22;7476;49.404;11.152;2023-07-29T01:07:44;15.90;99.90
14769;DHT22;7476;49.404;11.152;2023-07-29T01:10:22;15.90;99.90
14769;DHT22;7476;49.404;11.152;2023-07-29T01:12:54;15.70;99.90
14769;DHT22;7476;49.404;11.152;2023-07-29T01:15:25;15.70;99.90
14769;DHT22;7476;49.404;11.152;2023-07-29T01:17:59;15.50;99.90
14769;DHT22;7476;49.404;11.152;2023-07-29T01:20:29;15.40;99.90
14769;DHT22;7476;49.404;11.152;2023-07-29T01:22:57;15.40;99.90
14769;DHT22;7476;49.404;11.152;2023-07-29T01:25:25;15.20;99.90
14769;DHT22;7476;49.404;11.152;2023-07-29T01:27:52;15.10;99.90
14769;DHT22;7476;49.404;11.152;2023-07-29T01:30:19;15.00;99.90
14769;DHT22;7476;49.404;11.152;2023-07-29T01:32:52;15.00;99.90
14769;DHT22;7476;49.404;11.152;2023-07-29T01:35:23;15.30;99.90
14769;DHT22;7476;49.404;11.152;2023-07-29T01:37:52;15.40;99.90
14769;DHT22;7476;49.404;11.152;2023-07-29T01:40:22;15.50;99.90
14769;DHT22;7476;49.404;11.152;2023-07-29T01:42:51;15.40;99.90
14769;DHT22;7476;49.404;11.152;2023-07-29T01:45:18;15.50;99.90
14769;DHT22;7476;49.404;11.152;2023-07-29T01:47:45;15.40;99.90
14769;DHT22;7476;49.404;11.152;2023-07-29T01:50:12;15.40;99.90
14769;DHT22;7476;49.404;11.152;2023-07-29T01:52:38;15.40;99.90
14769;DHT22;7476;49.404;11.152;2023-07-29T01:55:06;15.50;99.90
14769;DHT22;7476;49.404;11.152;2023-07-29T01:57:32;15.70;99.90
14769;DHT22;7476;49.404;11.152;2023-07-29T02:00:01;15.70;99.90
14769;DHT22;7476;49.404;11.152;2023-07-29T02:02:29;15.50;99.90
14769;DHT22;7476;49.404;11.152;2023-07-29T02:04:56;15.30;99.90
14769;DHT22;7476;49.404;11.152;2023-07-29T02:07:22;15.40;99.90
14769;DHT22;7476;49.404;11.152;2023-07-29T02:09:51;15.50;99.90
14769;DHT22;7476;49.404;11.152;2023-07-29T02:12:18;15.40;99.90
14769;DHT22;7476;49.404;11.152;2023-07-29T02:14:45;15.50;99.90
14769;DHT22;7476;49.404;11.152;2023-07-29T02:17:13;15.40;99.90
14769;DHT22;7476;49.404;11.152;2023-07-29T02:19:40;15.40;99.90
14769;DHT22;7476;49.404;11.152;2023-07-29T02:22:06;15.50;99.90
14769;DHT22;7476;49.404;11.152;2023-07-29T02:24:33;15.40;99.90
14769;DHT22;7476;49.404;11.152;2023-07-29T02:27:00;15.40;99.90
14769;DHT22;7476;49.404;11.152;2023-07-29T02:29:26;15.50;99.90
14769;DHT22;7476;49.404;11.152;2023-07-29T02:31:53;15.40;99.90
14769;DHT22;7476;49.404;11.152;2023-07-29T02:34:21;15.40;99.90
14769;DHT22;7476;49.404;11.152;2023-07-29T02:36:48;15.50;99.90
14769;DHT22;7476;49.404;11.152;2023-07-29T02:39:15;15.40;99.90
14769;DHT22;7476;49.404;11.152;2023-07-29T02:41:41;15.30;99.90
14769;DHT22;7476;49.404;11.152;2023-07-29T02:44:08;15.10;99.90
14769;DHT22;7476;49.404;11.152;2023-07-29T02:46:35;14.90;99.90
14769;DHT22;7476;49.404;11.152;2023-07-29T02:49:01;14.70;99.90
14769;DHT22;7476;49.404;11.152;2023-07-29T02:51:30;14.70;99.90
14769;DHT22;7476;49.404;11.152;2023-07-29T02:53:56;14.70;99.90
14769;DHT22;7476;49.404;11.152;2023-07-29T02:56:23;14.70;99.90
14769;DHT22;7476;49.404;11.152;2023-07-29T02:58:50;14.60;99.90
14769;DHT22;7476;49.404;11.152;2023-07-29T03:01:17;14.30;99.90
14769;DHT22;7476;49.404;11.152;2023-07-29T03:03:44;14.30;99.90
14769;DHT22;7476;49.404;11.152;2023-07-29T03:06:13;14.20;99.90
14769;DHT22;7476;49.404;11.152;2023-07-29T03:08:41;14.10;99.90
14769;DHT22;7476;49.404;11.152;2023-07-29T03:11:10;14.10;99.90
14769;DHT22;7476;49.404;11.152;2023-07-29T03:13:37;14.00;99.90
14769;DHT22;7476;49.404;11.152;2023-07-29T03:16:07;14.40;99.90
14769;DHT22;7476;49.404;11.152;2023-07-29T03:18:34;14.40;99.90
14769;DHT22;7476;49.404;11.152;2023-07-29T03:21:01;14.40;99.90
14769;DHT22;7476;49.404;11.152;2023-07-29T03:23:29;14.50;99.90
14769;DHT22;7476;49.404;11.152;2023-07-29T03:25:58;14.50;99.90
14769;DHT22;7476;49.404;11.152;2023-07-29T03:28:26;14.50;99.90
14769;DHT22;7476;49.404;11.152;2023-07-29T03:30:52;14.60;99.90
14769;DHT22;7476;49.404;11.152;2023-07-29T03:33:19;14.60;99.90
14769;DHT22;7476;49.404;11.152;2023-07-29T03:35:46;14.70;99.90
14769;DHT22;7476;49.404;11.152;2023-07-29T03:38:13;14.80;99.90
14769;DHT22;7476;49.404;11.152;2023-07-29T03:40:40;14.90;99.90
14769;DHT22;7476;49.404;11.152;2023-07-29T03:43:09;14.90;99.90
14769;DHT22;7476;49.404;11.152;2023-07-29T03:45:36;15.00;99.90
14769;DHT22;7476;49.404;11.152;2023-07-29T03:48:04;15.10;99.90
14769;DHT22;7476;49.404;11.152;2023-07-29T03:50:34;15.20;99.90
14769;DHT22;7476;49.404;11.152;2023-07-29T03:53:02;15.20;99.90
14769;DHT22;7476;49.404;11.152;2023-07-29T03:55:28;15.20;99.90
14769;DHT22;7476;49.404;11.152;2023-07-29T03:57:56;15.10;99.90
14769;DHT22;7476;49.404;11.152;2023-07-29T04:00:25;15.10;99.90
14769;DHT22;7476;49.404;11.152;2023-07-29T04:02:51;15.30;99.90
14769;DHT22;7476;49.404;11.152;2023-07-29T04:05:18;15.20;99.90
14769;DHT22;7476;49.404;11.152;2023-07-29T04:07:46;15.40;99.90
14769;DHT22;7476;49.404;11.152;2023-07-29T04:10:13;15.40;99.90
14769;DHT22;7476;49.404;11.152;2023-07-29T04:12:39;15.40;99.90
14769;DHT22;7476;49.404;11.152;2023-07-29T04:15:07;15.50;99.90
14769;DHT22;7476;49.404;11.152;2023-07-29T04:17:35;15.60;99.90
14769;DHT22;7476;49.404;11.152;2023-07-29T04:20:02;15.70;99.90
14769;DHT22;7476;49.404;11.152;2023-07-29T04:22:29;15.80;99.90
14769;DHT22;7476;49.404;11.152;2023-07-29T04:24:56;16.00;99.90
14769;DHT22;7476;49.404;11.152;2023-07-29T04:27:22;16.40;99.90
14769;DHT22;7476;49.404;11.152;2023-07-29T04:29:49;16.60;99.90
14769;DHT22;7476;49.404;11.152;2023-07-29T04:32:16;16.80;99.90
14769;DHT22;7476;49.404;11.152;2023-07-29T04:34:44;16.80;99.90
14769;DHT22;7476;49.404;11.152;2023-07-29T04:37:11;17.10;99.90
14769;DHT22;7476;49.404;11.152;2023-07-29T04:39:38;17.30;99.90
14769;DHT22;7476;49.404;11.152;2023-07-29T04:42:05;17.50;99.90
14769;DHT22;7476;49.404;11.152;2023-07-29T04:44:32;18.00;99.90
14769;DHT22;7476;49.404;11.152;2023-07-29T04:46:59;17.80;99.90
14769;DHT22;7476;49.404;11.152;2023-07-29T04:49:25;17.80;99.90
14769;DHT22;7476;49.404;11.152;2023-07-29T04:51:53;18.00;99.90
14769;DHT22;7476;49.404;11.152;2023-07-29T04:54:20;18.00;99.90
14769;DHT22;7476;49.404;11.152;2023-07-29T04:56:47;18.50;99.90
14769;DHT22;7476;49.404;11.152;2023-07-29T04:59:14;19.10;99.90
14769;DHT22;7476;49.404;11.152;2023-07-29T05:01:40;19.20;99.90
14769;DHT22;7476;49.404;11.152;2023-07-29T05:04:08;19.90;99.90
14769;DHT22;7476;49.404;11.152;2023-07-29T05:06:35;20.60;99.90
14769;DHT22;7476;49.404;11.152;2023-07-29T05:09:13;20.50;99.90
14769;DHT22;7476;49.404;11.152;2023-07-29T05:11:41;19.90;99.90
14769;DHT22;7476;49.404;11.152;2023-07-29T05:14:09;19.60;99.90
14769;DHT22;7476;49.404;11.152;2023-07-29T05:16:35;19.50;99.90
14769;DHT22;7476;49.404;11.152;2023-07-29T05:19:02;19.30;99.90
14769;DHT22;7476;49.404;11.152;2023-07-29T05:21:29;19.10;99.90
14769;DHT22;7476;49.404;11.152;2023-07-29T05:23:56;18.90;99.90
14769;DHT22;7476;49.404;11.152;2023-07-29T05:26:24;18.90;99.90
14769;DHT22;7476;49.404;11.152;2023-07-29T05:28:51;18.90;99.90
14769;DHT22;7476;49.404;11.152;2023-07-29T05:31:18;18.70;99.90
14769;DHT22;7476;49.404;11.152;2023-07-29T05:33:44;18.70;99.90
14769;DHT22;7476;49.404;11.152;2023-07-29T05:36:11;18.50;99.90
14769;DHT22;7476;49.404;11.152;2023-07-29T05:38:38;18.60;99.90
14769;DHT22;7476;49.404;11.152;2023-07-29T05:41:04;18.40;99.90
14769;DHT22;7476;49.404;11.152;2023-07-29T05:43:32;18.50;99.90
14769;DHT22;7476;49.404;11.152;2023-07-29T05:45:59;18.60;99.90
14769;DHT22;7476;49.404;11.152;2023-07-29T05:48:27;18.60;99.90
14769;DHT22;7476;49.404;11.152;2023-07-29T05:50:53;18.80;99.90
14769;DHT22;7476;49.404;11.152;2023-07-29T05:53:20;18.80;99.90
14769;DHT22;7476;49.404;11.152;2023-07-29T05:55:47;18.90;99.90
14769;DHT22;7476;49.404;11.152;2023-07-29T05:58:13;18.90;99.90
14769;DHT22;7476;49.404;11.152;2023-07-29T06:00:41;19.00;99.90
14769;DHT22;7476;49.404;11.152;2023-07-29T06:03:08;19.00;99.90
14769;DHT22;7476;49.404;11.152;2023-07-29T06:05:35;19.10;99.90
14769;DHT22;7476;49.404;11.152;2023-07-29T06:08:02;19.30;99.90
14769;DHT22;7476;49.404;11.152;2023-07-29T06:10:29;19.30;99.90
14769;DHT22;7476;49.404;11.152;2023-07-29T06:12:56;19.20;99.90
14769;DHT22;7476;49.404;11.152;2023-07-29T06:15:23;19.00;99.90
14769;DHT22;7476;49.404;11.152;2023-07-29T06:17:51;18.80;99.90
14769;DHT22;7476;49.404;11.152;2023-07-29T06:20:18;18.60;99.90
14769;DHT22;7476;49.404;11.152;2023-07-29T06:22:45;18.50;99.90
14769;DHT22;7476;49.404;11.152;2023-07-29T06:25:12;18.40;99.90
14769;DHT22;7476;49.404;11.152;2023-07-29T06:27:38;18.30;99.90
14769;DHT22;7476;49.404;11.152;2023-07-29T06:30:06;18.30;99.90
14769;DHT22;7476;49.404;11.152;2023-07-29T06:32:33;18.30;99.90
14769;DHT22;7476;49.404;11.152;2023-07-29T06:35:02;18.20;99.90
14769;DHT22;7476;49.404;11.152;2023-07-29T06:37:28;18.20;99.90
14769;DHT22;7476;49.404;11.152;2023-07-29T06:39:55;18.20;99.90
14769;DHT22;7476;49.404;11.152;2023-07-29T06:42:22;18.20;99.90
14769;DHT22;7476;49.404;11.152;2023-07-29T06:44:48;18.20;99.90
14769;DHT22;7476;49.404;11.152;2023-07-29T06:47:15;18.20;99.90
14769;DHT22;7476;49.404;11.152;2023-07-29T06:49:42;18.10;99.90
14769;DHT22;7476;49.404;11.152;2023-07-29T06:52:10;18.00;99.90
14769;DHT22;7476;49.404;11.152;2023-07-29T06:54:36;17.90;99.90
14769;DHT22;7476;49.404;11.152;2023-07-29T06:57:04;17.80;99.90
14769;DHT22;7476;49.404;11.152;2023-07-29T06:59:30;17.80;99.90
14769;DHT22;7476;49.404;11.152;2023-07-29T07:01:57;17.80;99.90
14769;DHT22;7476;49.404;11.152;2023-07-29T07:04:25;17.80;99.90
14769;DHT22;7476;49.404;11.152;2023-07-29T07:06:52;17.70;99.90
14769;DHT22;7476;49.404;11.152;2023-07-29T07:09:20;17.70;99.90
14769;DHT22;7476;49.404;11.152;2023-07-29T07:11:46;17.70;99.90
14769;DHT22;7476;49.404;11.152;2023-07-29T07:14:13;17.80;99.90
14769;DHT22;7476;49.404;11.152;2023-07-29T07:16:40;17.80;99.90
14769;DHT22;7476;49.404;11.152;2023-07-29T07:19:06;18.00;99.90
14769;DHT22;7476;49.404;11.152;2023-07-29T07:21:33;18.10;99.90
14769;DHT22;7476;49.404;11.152;2023-07-29T07:24:00;18.30;99.90
14769;DHT22;7476;49.404;11.152;2023-07-29T07:26:28;18.50;99.90
14769;DHT22;7476;49.404;11.152;2023-07-29T07:28:54;18.70;99.90
14769;DHT22;7476;49.404;11.152;2023-07-29T07:31:21;18.80;99.90
14769;DHT22;7476;49.404;11.152;2023-07-29T07:33:48;19.00;99.90
14769;DHT22;7476;49.404;11.152;2023-07-29T07:36:15;19.10;99.90
14769;DHT22;7476;49.404;11.152;2023-07-29T07:38:42;19.20;99.90
14769;DHT22;7476;49.404;11.152;2023-07-29T07:41:08;19.30;99.90
14769;DHT22;7476;49.404;11.152;2023-07-29T07:43:36;19.30;99.90
14769;DHT22;7476;49.404;11.152;2023-07-29T07:46:03;19.40;99.90
14769;DHT22;7476;49.404;11.152;2023-07-29T07:48:30;19.60;99.90
14769;DHT22;7476;49.404;11.152;2023-07-29T07:50:58;19.60;99.90
14769;DHT22;7476;49.404;11.152;2023-07-29T07:53:25;19.60;99.90
14769;DHT22;7476;49.404;11.152;2023-07-29T07:55:52;19.70;99.90
14769;DHT22;7476;49.404;11.152;2023-07-29T07:58:18;19.70;99.90
14769;DHT22;7476;49.404;11.152;2023-07-29T08:00:47;19.60;99.90
14769;DHT22;7476;49.404;11.152;2023-07-29T08:03:13;19.60;99.90
14769;DHT22;7476;49.404;11.152;2023-07-29T08:05:40;19.50;99.90
14769;DHT22;7476;49.404;11.152;2023-07-29T08:08:06;19.40;99.90
14769;DHT22;7476;49.404;11.152;2023-07-29T08:10:33;19.30;99.90
14769;DHT22;7476;49.404;11.152;2023-07-29T08:13:00;19.30;99.90
14769;DHT22;7476;49.404;11.152;2023-07-29T08:15:26;19.20;99.90
14769;DHT22;7476;49.404;11.152;2023-07-29T08:17:54;19.10;99.90
14769;DHT22;7476;49.404;11.152;2023-07-29T08:20:21;19.10;99.90
14769;DHT22;7476;49.404;11.152;2023-07-29T08:22:48;19.10;99.90
14769;DHT22;7476;49.404;11.152;2023-07-29T08:25:15;19.10;99.90
14769;DHT22;7476;49.404;11.152;2023-07-29T08:27:41;19.10;99.90
14769;DHT22;7476;49.404;11.152;2023-07-29T08:30:08;19.10;99.90
14769;DHT22;7476;49.404;11.152;2023-07-29T08:32:35;19.20;99.90
14769;DHT22;7476;49.404;11.152;2023-07-29T08:35:04;19.20;99.90
14769;DHT22;7476;49.404;11.152;2023-07-29T08:37:31;19.10;99.90
14769;DHT22;7476;49.404;11.152;2023-07-29T08:39:57;18.90;99.90
14769;DHT22;7476;49.404;11.152;2023-07-29T08:42:29;18.80;99.90
14769;DHT22;7476;49.404;11.152;2023-07-29T08:45:00;18.70;99.90
14769;DHT22;7476;49.404;11.152;2023-07-29T08:47:28;18.60;99.90
14769;DHT22;7476;49.404;11.152;2023-07-29T08:49:55;18.50;99.90
14769;DHT22;7476;49.404;11.152;2023-07-29T08:52:24;18.50;99.90
14769;DHT22;7476;49.404;11.152;2023-07-29T08:54:52;18.50;99.90
14769;DHT22;7476;49.404;11.152;2023-07-29T08:57:19;18.60;99.90
14769;DHT22;7476;49.404;11.152;2023-07-29T08:59:46;18.60;99.90
14769;DHT22;7476;49.404;11.152;2023-07-29T09:02:13;18.60;99.90
14769;DHT22;7476;49.404;11.152;2023-07-29T09:04:39;18.60;99.90
14769;DHT22;7476;49.404;11.152;2023-07-29T09:07:07;18.60;99.90
14769;DHT22;7476;49.404;11.152;2023-07-29T09:09:35;18.60;99.90
14769;DHT22;7476;49.404;11.152;2023-07-29T09:12:02;18.60;99.90
14769;DHT22;7476;49.404;11.152;2023-07-29T09:14:28;18.60;99.90
14769;DHT22;7476;49.404;11.152;2023-07-29T09:16:55;18.60;99.90
14769;DHT22;7476;49.404;11.152;2023-07-29T09:19:25;18.70;99.90
14769;DHT22;7476;49.404;11.152;2023-07-29T09:21:51;18.90;99.90
14769;DHT22;7476;49.404;11.152;2023-07-29T09:24:18;18.90;99.90
14769;DHT22;7476;49.404;11.152;2023-07-29T09:26:51;19.00;99.90
14769;DHT22;7476;49.404;11.152;2023-07-29T09:29:22;19.00;99.90
14769;DHT22;7476;49.404;11.152;2023-07-29T09:31:49;19.00;99.90
14769;DHT22;7476;49.404;11.152;2023-07-29T09:34:16;18.90;99.90
14769;DHT22;7476;49.404;11.152;2023-07-29T09:36:43;18.80;99.90
14769;DHT22;7476;49.404;11.152;2023-07-29T09:39:11;18.80;99.90
14769;DHT22;7476;49.404;11.152;2023-07-29T09:41:38;18.70;99.90
14769;DHT22;7476;49.404;11.152;2023-07-29T09:44:07;18.70;99.90
14769;DHT22;7476;49.404;11.152;2023-07-29T09:46:35;18.60;99.90
14769;DHT22;7476;49.404;11.152;2023-07-29T09:49:03;18.60;99.90
14769;DHT22;7476;49.404;11.152;2023-07-29T09:51:30;18.60;99.90
14769;DHT22;7476;49.404;11.152;2023-07-29T09:53:56;18.60;99.90
14769;DHT22;7476;49.404;11.152;2023-07-29T09:56:26;18.80;99.90
14769;DHT22;7476;49.404;11.152;2023-07-29T09:58:54;18.90;99.90
14769;DHT22;7476;49.404;11.152;2023-07-29T10:01:23;19.20;99.90
14769;DHT22;7476;49.404;11.152;2023-07-29T10:03:50;19.30;99.90
14769;DHT22;7476;49.404;11.152;2023-07-29T10:06:17;19.60;99.90
14769;DHT22;7476;49.404;11.152;2023-07-29T10:08:45;19.70;99.90
14769;DHT22;7476;49.404;11.152;2023-07-29T10:11:12;19.80;99.90
14769;DHT22;7476;49.404;11.152;2023-07-29T10:13:39;19.80;99.90
14769;DHT22;7476;49.404;11.152;2023-07-29T10:16:05;20.20;99.90
14769;DHT22;7476;49.404;11.152;2023-07-29T10:18:34;20.50;99.90
14769;DHT22;7476;49.404;11.152;2023-07-29T10:21:01;20.70;99.90
14769;DHT22;7476;49.404;11.152;2023-07-29T10:23:32;20.90;99.90
14769;DHT22;7476;49.404;11.152;2023-07-29T10:26:03;21.00;99.90
14769;DHT22;7476;49.404;11.152;2023-07-29T10:28:31;21.30;99.90
14769;DHT22;7476;49.404;11.152;2023-07-29T10:31:00;21.20;99.90
14769;DHT22;7476;49.404;11.152;2023-07-29T10:33:26;21.30;99.90
14769;DHT22;7476;49.404;11.152;2023-07-29T10:35:55;21.60;99.90
14769;DHT22;7476;49.404;11.152;2023-07-29T10:38:22;22.00;99.90
14769;DHT22;7476;49.404;11.152;2023-07-29T10:40:51;22.50;99.90
14769;DHT22;7476;49.404;11.152;2023-07-29T10:43:23;23.10;99.90
14769;DHT22;7476;49.404;11.152;2023-07-29T10:45:50;23.40;99.90
14769;DHT22;7476;49.404;11.152;2023-07-29T10:51:28;23.90;99.90
14769;DHT22;7476;49.404;11.152;2023-07-29T10:53:56;24.80;99.90
14769;DHT22;7476;49.404;11.152;2023-07-29T10:56:28;25.30;99.90
14769;DHT22;7476;49.404;11.152;2023-07-29T10:58:56;25.70;99.90
14769;DHT22;7476;49.404;11.152;2023-07-29T11:01:28;25.70;99.90
14769;DHT22;7476;49.404;11.152;2023-07-29T11:09:53;25.60;99.90
14769;DHT22;7476;49.404;11.152;2023-07-29T11:12:48;26.10;99.90
14769;DHT22;7476;49.404;11.152;2023-07-29T11:15:19;26.10;99.90
14769;DHT22;7476;49.404;11.152;2023-07-29T11:17:48;26.50;99.90
14769;DHT22;7476;49.404;11.152;2023-07-29T11:20:15;26.60;99.90
14769;DHT22;7476;49.404;11.152;2023-07-29T11:22:42;26.50;99.90
14769;DHT22;7476;49.404;11.152;2023-07-29T11:25:11;26.60;99.90
14769;DHT22;7476;49.404;11.152;2023-07-29T11:27:39;26.60;99.90
14769;DHT22;7476;49.404;11.152;2023-07-29T11:30:07;26.20;99.90
14769;DHT22;7476;49.404;11.152;2023-07-29T11:32:35;25.50;99.90
14769;DHT22;7476;49.404;11.152;2023-07-29T11:35:03;24.80;99.90
14769;DHT22;7476;49.404;11.152;2023-07-29T11:37:30;24.40;99.90
14769;DHT22;7476;49.404;11.152;2023-07-29T11:39:57;24.10;99.90
14769;DHT22;7476;49.404;11.152;2023-07-29T11:42:26;23.80;99.90
14769;DHT22;7476;49.404;11.152;2023-07-29T11:44:53;23.80;99.90
14769;DHT22;7476;49.404;11.152;2023-07-29T11:47:19;23.60;99.90
14769;DHT22;7476;49.404;11.152;2023-07-29T11:49:46;23.10;99.90
14769;DHT22;7476;49.404;11.152;2023-07-29T11:52:13;22.70;99.90
14769;DHT22;7476;49.404;11.152;2023-07-29T11:54:44;22.40;99.90
14769;DHT22;7476;49.404;11.152;2023-07-29T11:57:12;22.30;99.90
14769;DHT22;7476;49.404;11.152;2023-07-29T11:59:41;22.10;99.90
14769;DHT22;7476;49.404;11.152;2023-07-29T12:02:10;22.00;99.90
14769;DHT22;7476;49.404;11.152;2023-07-29T12:04:38;22.00;99.90
14769;DHT22;7476;49.404;11.152;2023-07-29T12:07:05;22.10;99.90
14769;DHT22;7476;49.404;11.152;2023-07-29T12:09:33;22.30;99.90
14769;DHT22;7476;49.404;11.152;2023-07-29T12:12:00;22.40;99.90
14769;DHT22;7476;49.404;11.152;2023-07-29T12:14:29;22.70;99.90
14769;DHT22;7476;49.404;11.152;2023-07-29T12:17:00;23.30;99.90
14769;DHT22;7476;49.404;11.152;2023-07-29T12:19:32;24.00;99.90
14769;DHT22;7476;49.404;11.152;2023-07-29T12:21:59;25.00;99.90
14769;DHT22;7476;49.404;11.152;2023-07-29T12:24:26;25.40;99.90
14769;DHT22;7476;49.404;11.152;2023-07-29T12:26:53;26.00;99.90
14769;DHT22;7476;49.404;11.152;2023-07-29T12:29:20;26.60;99.90
14769;DHT22;7476;49.404;11.152;2023-07-29T12:31:46;27.90;99.90
14769;DHT22;7476;49.404;11.152;2023-07-29T12:34:18;28.20;99.90
14769;DHT22;7476;49.404;11.152;2023-07-29T12:36:46;28.00;99.90
14769;DHT22;7476;49.404;11.152;2023-07-29T12:39:18;27.70;99.90
14769;DHT22;7476;49.404;11.152;2023-07-29T12:41:44;27.20;99.90
14769;DHT22;7476;49.404;11.152;2023-07-29T12:44:11;28.00;99.90
14769;DHT22;7476;49.404;11.152;2023-07-29T12:46:38;28.40;99.90
14769;DHT22;7476;49.404;11.152;2023-07-29T12:49:05;28.30;99.90
14769;DHT22;7476;49.404;11.152;2023-07-29T12:51:33;28.60;99.90
14769;DHT22;7476;49.404;11.152;2023-07-29T12:54:00;28.90;99.90
14769;DHT22;7476;49.404;11.152;2023-07-29T12:56:27;28.50;99.90
14769;DHT22;7476;49.404;11.152;2023-07-29T12:58:53;28.70;99.90
14769;DHT22;7476;49.404;11.152;2023-07-29T13:01:20;29.20;99.90
14769;DHT22;7476;49.404;11.152;2023-07-29T13:03:47;29.20;99.90
14769;DHT22;7476;49.404;11.152;2023-07-29T13:06:14;29.00;99.90
14769;DHT22;7476;49.404;11.152;2023-07-29T13:08:42;28.40;99.90
14769;DHT22;7476;49.404;11.152;2023-07-29T13:11:09;28.40;99.90
14769;DHT22;7476;49.404;11.152;2023-07-29T13:13:36;29.10;99.90
14769;DHT22;7476;49.404;11.152;2023-07-29T13:16:03;28.90;99.90
14769;DHT22;7476;49.404;11.152;2023-07-29T13:18:30;29.30;99.90
14769;DHT22;7476;49.404;11.152;2023-07-29T13:20:56;29.40;99.90
14769;DHT22;7476;49.404;11.152;2023-07-29T13:23:24;29.90;99.90
14769;DHT22;7476;49.404;11.152;2023-07-29T13:25:52;30.20;99.90
14769;DHT22;7476;49.404;11.152;2023-07-29T13:28:19;29.70;99.90
14769;DHT22;7476;49.404;11.152;2023-07-29T13:30:45;29.00;99.90
14769;DHT22;7476;49.404;11.152;2023-07-29T13:33:12;27.90;99.90
14769;DHT22;7476;49.404;11.152;2023-07-29T13:35:38;27.60;99.90
14769;DHT22;7476;49.404;11.152;2023-07-29T13:38:05;27.60;99.90
14769;DHT22;7476;49.404;11.152;2023-07-29T13:40:32;27.00;99.90
14769;DHT22;7476;49.404;11.152;2023-07-29T13:43:00;26.70;99.90
14769;DHT22;7476;49.404;11.152;2023-07-29T13:45:27;26.80;99.90
14769;DHT22;7476;49.404;11.152;2023-07-29T13:47:53;27.20;99.90
14769;DHT22;7476;49.404;11.152;2023-07-29T13:50:20;27.40;99.90
14769;DHT22;7476;49.404;11.152;2023-07-29T13:52:47;27.40;99.90
14769;DHT22;7476;49.404;11.152;2023-07-29T13:55:14;27.90;99.90
14769;DHT22;7476;49.404;11.152;2023-07-29T13:57:41;28.70;99.90
14769;DHT22;7476;49.404;11.152;2023-07-29T14:00:09;28.00;99.90
14769;DHT22;7476;49.404;11.152;2023-07-29T14:02:36;27.60;99.90
14769;DHT22;7476;49.404;11.152;2023-07-29T14:05:03;27.70;99.90
14769;DHT22;7476;49.404;11.152;2023-07-29T14:07:30;28.10;99.90
14769;DHT22;7476;49.404;11.152;2023-07-29T14:09:57;27.40;99.90
14769;DHT22;7476;49.404;11.152;2023-07-29T14:12:24;27.70;99.90
14769;DHT22;7476;49.404;11.152;2023-07-29T14:14:50;29.20;99.90
14769;DHT22;7476;49.404;11.152;2023-07-29T14:17:18;29.40;99.90
14769;DHT22;7476;49.404;11.152;2023-07-29T14:19:45;29.10;99.90
14769;DHT22;7476;49.404;11.152;2023-07-29T14:22:11;29.20;99.90
14769;DHT22;7476;49.404;11.152;2023-07-29T14:24:38;29.20;99.90
14769;DHT22;7476;49.404;11.152;2023-07-29T14:27:05;28.90;99.90
14769;DHT22;7476;49.404;11.152;2023-07-29T14:29:32;28.40;99.90
14769;DHT22;7476;49.404;11.152;2023-07-29T14:31:58;27.70;99.90
14769;DHT22;7476;49.404;11.152;2023-07-29T14:34:26;27.60;99.90
14769;DHT22;7476;49.404;11.152;2023-07-29T14:36:54;27.80;99.90
14769;DHT22;7476;49.404;11.152;2023-07-29T14:39:21;27.80;99.90
14769;DHT22;7476;49.404;11.152;2023-07-29T14:41:48;27.40;99.90
14769;DHT22;7476;49.404;11.152;2023-07-29T14:44:14;26.80;99.90
14769;DHT22;7476;49.404;11.152;2023-07-29T14:46:41;26.10;99.90
14769;DHT22;7476;49.404;11.152;2023-07-29T14:49:07;25.90;99.90
14769;DHT22;7476;49.404;11.152;2023-07-29T14:51:36;25.90;99.90
14769;DHT22;7476;49.404;11.152;2023-07-29T14:54:03;26.20;99.90
14769;DHT22;7476;49.404;11.152;2023-07-29T14:56:29;26.20;99.90
14769;DHT22;7476;49.404;11.152;2023-07-29T14:58:56;26.20;99.90
14769;DHT22;7476;49.404;11.152;2023-07-29T15:01:23;26.80;99.90
14769;DHT22;7476;49.404;11.152;2023-07-29T15:03:49;27.80;99.90
14769;DHT22;7476;49.404;11.152;2023-07-29T15:06:16;28.50;99.90
14769;DHT22;7476;49.404;11.152;2023-07-29T15:08:44;29.40;99.90
14769;DHT22;7476;49.404;11.152;2023-07-29T15:11:10;29.50;99.90
14769;DHT22;7476;49.404;11.152;2023-07-29T15:13:37;29.70;99.90
14769;DHT22;7476;49.404;11.152;2023-07-29T15:16:04;29.60;99.90
14769;DHT22;7476;49.404;11.152;2023-07-29T15:18:31;29.60;99.90
14769;DHT22;7476;49.404;11.152;2023-07-29T15:20:59;30.00;99.90
14769;DHT22;7476;49.404;11.152;2023-07-29T15:23:27;29.80;99.90
14769;DHT22;7476;49.404;11.152;2023-07-29T15:25:55;29.70;99.90
14769;DHT22;7476;49.404;11.152;2023-07-29T15:28:22;30.10;99.90
14769;DHT22;7476;49.404;11.152;2023-07-29T15:30:49;30.40;99.90
14769;DHT22;7476;49.404;11.152;2023-07-29T15:33:15;30.10;99.70
14769;DHT22;7476;49.404;11.152;2023-07-29T15:35:42;29.20;99.90
14769;DHT22;7476;49.404;11.152;2023-07-29T15:38:09;29.70;99.90
14769;DHT22;7476;49.404;11.152;2023-07-29T15:40:35;30.00;99.90